Southern Pines, North Carolina
Current Conditions -  °F | °C
As of 12:55 PM on Sunday 21 Dec 2014 (Local Time) from KSOP Reporting Station
Overcast Overcast  
Wind Chill: 44°   Ceiling: 4400
Heat Index: 46°   Visibility: 10mi
Dew Point: 36°   Wind: 6mph
Humidity: 66%   Direction: 50°NE
Pressure: 30.24"   Gusts: NA
Location:  35.17°N, 79.39°W
Report Text: KSOP 211755Z AUTO 05005KT 10SM OVC044 08/02 A3024 RMK AO1 10080 20040 57024
Loading
Personal Weather Stations






























Interactive Weather Map New forecast layout! Learn more

10-Day Weather Forecast

Advertisements
Track Severe Weather on mobile